Time;durP1;ratioP1;P1;durP2;ratioP2;P2;SDS_P1;SDS_P2;PMS_P1;PMS_P2;Temp;Humidity;BMP_temperature;BMP_pressure;BME280_temperature;BME280_humidity;BME280_pressure;Samples;Min_cycle;Max_cycle;Signal;HPM_P1;HPM_P2
2021/05/30 00:01:04;;;;;;;15.73;7.70;;;10.30;99.90;;;;;;4943340;28;20034;-80
2021/05/30 00:03:29;;;;;;;;;;;10.30;99.90;;;;;;4987325;28;20385;-80
2021/05/30 00:05:55;;;;;;;14.45;8.27;;;10.30;99.90;;;;;;4937215;29;19937;-80
2021/05/30 00:08:21;;;;;;;14.68;8.65;;;10.20;99.90;;;;;;4957328;28;20050;-80
2021/05/30 00:10:47;;;;;;;14.10;8.63;;;10.20;99.90;;;;;;4982208;28;20037;-80
2021/05/30 00:13:14;;;;;;;14.05;8.90;;;10.20;99.90;;;;;;4955928;28;20039;-81
2021/05/30 00:15:42;;;;;;;15.40;9.07;;;10.20;99.90;;;;;;4958271;28;20042;-80
2021/05/30 00:18:07;;;;;;;18.70;9.05;;;10.20;99.90;;;;;;4974899;28;20551;-80
2021/05/30 00:20:33;;;;;;;18.13;9.23;;;10.20;99.90;;;;;;4978577;28;20042;-81
2021/05/30 00:22:59;;;;;;;16.02;9.10;;;10.20;99.90;;;;;;4955347;28;20122;-81
2021/05/30 00:25:25;;;;;;;21.35;10.48;;;10.30;99.90;;;;;;4984214;28;20047;-81
2021/05/30 00:27:50;;;;;;;20.10;10.52;;;10.20;99.90;;;;;;4958569;28;20125;-81
2021/05/30 00:30:17;;;;;;;21.13;10.02;;;10.20;99.90;;;;;;4945979;28;20034;-81
2021/05/30 00:32:42;;;;;;;;;;;10.30;99.90;;;;;;4977929;28;20039;-81
2021/05/30 00:35:09;;;;;;;20.60;11.50;;;10.30;99.90;;;;;;4977452;28;19918;-81
2021/05/30 00:37:34;;;;;;;20.92;10.48;;;10.30;99.90;;;;;;4977848;28;20503;-81
2021/05/30 00:40:00;;;;;;;18.73;9.98;;;10.30;99.90;;;;;;4964556;28;20125;-81
2021/05/30 00:42:26;;;;;;;17.48;9.82;;;10.30;99.90;;;;;;4961776;28;20039;-81
2021/05/30 00:44:52;;;;;;;17.55;10.80;;;10.30;99.90;;;;;;4954696;28;20543;-81
2021/05/30 00:47:18;;;;;;;17.30;10.43;;;10.30;99.90;;;;;;4981189;28;20047;-81
2021/05/30 00:49:43;;;;;;;16.63;10.65;;;10.30;99.90;;;;;;4980123;28;20041;-82
2021/05/30 00:52:09;;;;;;;14.52;9.95;;;10.30;99.90;;;;;;4980621;28;20117;-81
2021/05/30 00:54:39;;;;;;;16.08;10.63;;;10.30;99.90;;;;;;4983161;28;20035;-82
2021/05/30 00:57:11;;;;;;;18.00;9.98;;;10.30;99.90;;;;;;4980586;28;20054;-81
2021/05/30 00:59:37;;;;;;;18.63;10.07;;;10.20;99.90;;;;;;4964803;28;20041;-81
2021/05/30 01:02:03;;;;;;;;;;;10.20;99.90;;;;;;4979493;28;20039;-80
2021/05/30 01:04:29;;;;;;;16.83;10.82;;;10.10;99.90;;;;;;4977907;28;19917;-81
2021/05/30 01:06:57;;;;;;;18.02;10.93;;;10.20;99.90;;;;;;4956041;28;20062;-80
2021/05/30 01:09:25;;;;;;;17.23;9.68;;;10.20;99.90;;;;;;4983646;28;20038;-80
2021/05/30 01:11:52;;;;;;;20.95;11.82;;;10.20;99.90;;;;;;4965398;28;20641;-80
2021/05/30 01:14:18;;;;;;;18.08;11.00;;;10.20;99.90;;;;;;4980529;28;20089;-80
2021/05/30 01:16:46;;;;;;;19.73;11.63;;;10.20;99.90;;;;;;4973668;28;20043;-80
2021/05/30 01:19:13;;;;;;;16.67;11.23;;;10.20;99.90;;;;;;4984518;28;20057;-80
2021/05/30 01:21:41;;;;;;;19.80;11.60;;;10.20;99.90;;;;;;4971555;28;20039;-80
2021/05/30 01:24:07;;;;;;;20.25;12.43;;;10.20;99.90;;;;;;4984351;28;20781;-81
2021/05/30 01:26:33;;;;;;;20.85;10.90;;;10.20;99.90;;;;;;4961807;28;20053;-80
2021/05/30 01:28:59;;;;;;;20.00;11.43;;;10.20;99.90;;;;;;4986030;28;20544;-80
2021/05/30 01:31:25;;;;;;;19.40;11.40;;;10.20;99.90;;;;;;4962603;28;20042;-80
2021/05/30 01:33:51;;;;;;;;;;;10.20;99.90;;;;;;4985722;28;20114;-81
2021/05/30 01:36:17;;;;;;;27.55;12.25;;;10.20;99.90;;;;;;4964003;28;20005;-80
2021/05/30 01:38:42;;;;;;;22.55;12.90;;;10.20;99.90;;;;;;4964474;28;20480;-80
2021/05/30 01:41:08;;;;;;;24.27;12.60;;;10.20;99.90;;;;;;4965438;28;20049;-80
2021/05/30 01:43:34;;;;;;;23.02;13.10;;;10.20;99.90;;;;;;4950754;28;20038;-81
2021/05/30 01:46:01;;;;;;;19.65;11.00;;;10.20;99.90;;;;;;4939704;28;20062;-81
2021/05/30 01:48:27;;;;;;;24.30;12.48;;;10.20;99.90;;;;;;4965013;28;20129;-80
2021/05/30 01:50:53;;;;;;;19.15;12.05;;;10.20;99.90;;;;;;4943514;28;20122;-80
2021/05/30 01:53:34;;;;;;;21.00;11.90;;;10.20;99.90;;;;;;4974579;28;20070;-80
2021/05/30 01:58:26;;;;;;;26.30;12.98;;;10.20;99.90;;;;;;4977175;28;20057;-80
2021/05/30 02:00:52;;;;;;;;;;;10.20;99.90;;;;;;4977293;28;20084;-80
2021/05/30 02:03:18;;;;;;;21.17;12.20;;;10.20;99.90;;;;;;4977444;28;20004;-80
2021/05/30 02:05:52;;;;;;;26.20;12.60;;;10.10;99.90;;;;;;4977019;28;20118;-80
2021/05/30 02:08:18;;;;;;;24.00;12.27;;;10.10;99.90;;;;;;4964702;28;20062;-80
2021/05/30 02:10:44;;;;;;;22.92;12.70;;;10.20;99.90;;;;;;4976482;28;20413;-80
2021/05/30 02:13:10;;;;;;;20.30;11.65;;;10.10;99.90;;;;;;4974627;28;20109;-80
2021/05/30 02:15:37;;;;;;;23.75;11.98;;;10.10;99.90;;;;;;4957742;28;20469;-81
2021/05/30 02:18:05;;;;;;;22.48;11.90;;;10.10;99.90;;;;;;4981062;28;20047;-81
2021/05/30 02:20:34;;;;;;;23.00;11.20;;;10.10;99.90;;;;;;4978614;28;20066;-81
2021/05/30 02:22:59;;;;;;;25.33;12.10;;;10.10;99.90;;;;;;4974901;28;20113;-81
2021/05/30 02:25:25;;;;;;;18.60;10.07;;;10.10;99.90;;;;;;4968021;28;20039;-81
2021/05/30 02:27:52;;;;;;;18.88;10.52;;;10.20;99.90;;;;;;4977043;28;20056;-81
2021/05/30 02:30:19;;;;;;;23.65;10.60;;;10.10;99.90;;;;;;4973775;28;20500;-81
2021/05/30 02:32:46;;;;;;;17.45;9.65;;;10.10;99.90;;;;;;4975555;28;20066;-81
2021/05/30 02:35:12;;;;;;;16.15;9.13;;;10.10;99.90;;;;;;4959465;28;20035;-81
2021/05/30 02:37:38;;;;;;;14.18;9.77;;;10.10;99.90;;;;;;4962697;28;20097;-81
2021/05/30 02:40:05;;;;;;;16.50;9.00;;;10.00;99.90;;;;;;4981057;28;20602;-81
2021/05/30 02:42:31;;;;;;;13.38;8.50;;;10.00;99.90;;;;;;4961443;28;20112;-81
2021/05/30 02:44:57;;;;;;;15.15;8.40;;;9.90;99.90;;;;;;4978751;28;20435;-80
2021/05/30 02:47:23;;;;;;;17.13;9.00;;;9.90;99.90;;;;;;4958095;28;20436;-81
2021/05/30 02:49:49;;;;;;;20.55;10.90;;;9.90;99.90;;;;;;4979733;28;20122;-81
2021/05/30 02:52:15;;;;;;;14.25;8.57;;;9.80;99.90;;;;;;4963775;28;20058;-81
2021/05/30 02:54:41;;;;;;;16.13;8.85;;;9.80;99.90;;;;;;4975177;28;20046;-81
2021/05/30 02:57:07;;;;;;;17.00;9.20;;;10.20;99.90;;;;;;4961960;28;20448;-81
2021/05/30 02:59:32;;;;;;;17.38;9.70;;;9.80;99.90;;;;;;4964596;28;20042;-81
2021/05/30 03:01:58;;;;;;;14.88;8.70;;;9.80;99.90;;;;;;4981143;28;20400;-81
2021/05/30 03:04:24;;;;;;;16.15;8.93;;;9.80;99.90;;;;;;4981537;28;20038;-81
2021/05/30 03:06:50;;;;;;;;;;;9.80;99.90;;;;;;4958671;28;20052;-80
2021/05/30 03:09:16;;;;;;;20.45;9.82;;;9.80;99.90;;;;;;4977725;28;19917;-80
2021/05/30 03:11:42;;;;;;;16.20;8.75;;;9.80;99.90;;;;;;4978802;28;20046;-80
2021/05/30 03:14:07;;;;;;;17.00;9.07;;;9.80;99.90;;;;;;4979785;28;20034;-80
2021/05/30 03:16:33;;;;;;;16.17;9.70;;;9.80;99.90;;;;;;4940218;28;20121;-81
2021/05/30 03:19:00;;;;;;;17.33;9.20;;;9.80;99.90;;;;;;4949126;28;20064;-81
2021/05/30 03:21:25;;;;;;;22.48;9.73;;;10.20;99.90;;;;;;4977527;28;20532;-81
2021/05/30 03:23:51;;;;;;;20.02;9.80;;;9.70;99.90;;;;;;4966470;28;20569;-80
2021/05/30 03:26:17;;;;;;;18.17;8.95;;;9.70;99.90;;;;;;4955557;28;20477;-80
2021/05/30 03:28:43;;;;;;;19.38;9.55;;;9.70;99.90;;;;;;4979187;28;20034;-81
2021/05/30 03:31:09;;;;;;;19.50;10.70;;;9.70;99.90;;;;;;4975753;28;20061;-81
2021/05/30 03:33:35;;;;;;;20.17;9.73;;;9.70;99.90;;;;;;4980445;28;20074;-80
2021/05/30 03:36:04;;;;;;;18.75;10.57;;;9.70;99.90;;;;;;4969175;28;20035;-81
2021/05/30 03:38:32;;;;;;;18.45;10.68;;;9.70;99.90;;;;;;4963009;28;20117;-81
2021/05/30 03:41:09;;;;;;;19.75;10.55;;;9.70;99.90;;;;;;4963444;28;20417;-81
2021/05/30 03:43:35;;;;;;;19.73;10.88;;;9.80;99.90;;;;;;4958475;28;20083;-81
2021/05/30 03:46:02;;;;;;;;;;;9.80;99.90;;;;;;4974690;28;20046;-81
2021/05/30 03:48:27;;;;;;;19.92;10.20;;;9.80;99.90;;;;;;4958467;28;19922;-81
2021/05/30 03:50:53;;;;;;;20.27;10.38;;;9.80;99.90;;;;;;4975369;28;20035;-81
2021/05/30 03:53:21;;;;;;;23.25;10.50;;;9.80;99.90;;;;;;4956666;28;20445;-81
2021/05/30 03:55:48;;;;;;;20.85;10.13;;;9.80;99.90;;;;;;4974239;28;20065;-81
2021/05/30 03:58:14;;;;;;;22.42;10.77;;;9.80;99.90;;;;;;4974974;28;20129;-81
2021/05/30 04:00:41;;;;;;;20.42;9.70;;;9.80;99.90;;;;;;4972905;28;20051;-81
2021/05/30 04:03:07;;;;;;;21.23;10.77;;;9.80;99.90;;;;;;4976236;28;20038;-81
2021/05/30 04:05:34;;;;;;;22.92;10.88;;;9.80;99.90;;;;;;4956343;28;20043;-81
2021/05/30 04:08:00;;;;;;;22.85;11.38;;;9.80;99.90;;;;;;4973693;28;20070;-80
2021/05/30 04:10:26;;;;;;;17.70;9.82;;;9.80;99.90;;;;;;4973346;28;20085;-80
2021/05/30 04:12:52;;;;;;;23.00;10.20;;;9.80;99.90;;;;;;4955510;28;20081;-80
2021/05/30 04:15:18;;;;;;;15.55;9.27;;;9.80;99.90;;;;;;4955424;28;20030;-80
2021/05/30 04:17:47;;;;;;;16.88;9.55;;;9.80;99.90;;;;;;4968497;28;20096;-81
2021/05/30 04:20:16;;;;;;;17.73;9.75;;;9.90;99.90;;;;;;4959459;28;20110;-81
2021/05/30 04:22:44;;;;;;;21.25;9.90;;;9.90;99.90;;;;;;4962742;28;20042;-80
2021/05/30 04:25:10;;;;;;;18.35;9.65;;;10.00;99.90;;;;;;4975647;28;20051;-81
2021/05/30 04:27:36;;;;;;;16.17;9.73;;;10.00;99.90;;;;;;4959415;28;20066;-81
2021/05/30 04:30:06;;;;;;;;;;;10.10;99.90;;;;;;4959665;28;20094;-80
2021/05/30 04:32:33;;;;;;;20.80;10.50;;;10.10;99.90;;;;;;4985125;28;19979;-81
2021/05/30 04:34:59;;;;;;;18.83;10.00;;;10.10;99.90;;;;;;4980538;28;20484;-80
2021/05/30 04:37:25;;;;;;;19.70;10.70;;;10.10;99.90;;;;;;4977112;28;20097;-80
2021/05/30 04:39:51;;;;;;;17.65;10.68;;;10.10;99.90;;;;;;4963688;28;20065;-80
2021/05/30 04:42:18;;;;;;;19.08;10.88;;;10.20;99.90;;;;;;4986668;28;20038;-80
2021/05/30 04:44:45;;;;;;;22.42;10.50;;;10.20;99.90;;;;;;4983670;28;20077;-80
2021/05/30 04:47:11;;;;;;;20.27;10.43;;;10.20;99.90;;;;;;4961215;28;20042;-80
2021/05/30 04:49:38;;;;;;;20.85;11.55;;;10.20;99.90;;;;;;4973991;28;20043;-81
2021/05/30 04:52:06;;;;;;;16.90;10.30;;;10.20;99.90;;;;;;4972907;28;20089;-81
2021/05/30 04:54:31;;;;;;;23.20;11.45;;;10.30;99.90;;;;;;4959387;28;20039;-81
2021/05/30 04:56:58;;;;;;;20.77;11.30;;;10.30;99.90;;;;;;4959513;28;20050;-81
2021/05/30 04:59:23;;;;;;;17.92;10.18;;;10.30;99.90;;;;;;4976013;28;20042;-81
2021/05/30 05:01:50;;;;;;;19.15;10.02;;;10.30;99.90;;;;;;4976265;28;20084;-81
2021/05/30 05:04:16;;;;;;;21.73;11.02;;;10.30;99.90;;;;;;4942163;28;20118;-81
2021/05/30 05:06:45;;;;;;;19.10;10.40;;;10.30;99.90;;;;;;4976926;28;20097;-80
2021/05/30 05:09:11;;;;;;;17.77;9.57;;;10.30;99.90;;;;;;4947202;28;20031;-82
2021/05/30 05:11:37;;;;;;;19.60;9.82;;;10.30;99.90;;;;;;4977134;28;20089;-81
2021/05/30 05:14:03;;;;;;;18.10;9.95;;;10.40;99.90;;;;;;4961491;28;20158;-80
2021/05/30 05:16:30;;;;;;;18.00;10.68;;;10.40;99.90;;;;;;4958978;28;20041;-81
2021/05/30 05:18:57;;;;;;;21.40;10.52;;;10.40;99.90;;;;;;4964463;28;20049;-79
2021/05/30 05:21:23;;;;;;;18.23;10.80;;;10.40;99.90;;;;;;4970811;28;20041;-81
2021/05/30 05:23:49;;;;;;;14.05;9.02;;;10.40;99.90;;;;;;4961918;28;20134;-80
2021/05/30 05:26:15;;;;;;;19.27;10.32;;;10.50;99.90;;;;;;4968827;28;20047;-79
2021/05/30 05:28:41;;;;;;;18.45;10.50;;;10.50;99.90;;;;;;4967204;28;20049;-80
2021/05/30 05:31:06;;;;;;;21.88;10.63;;;10.50;99.90;;;;;;4976123;28;20035;-81
2021/05/30 05:33:32;;;;;;;18.10;10.88;;;10.50;99.90;;;;;;4988037;28;20037;-80
2021/05/30 05:35:58;;;;;;;22.17;12.18;;;10.60;99.90;;;;;;4979584;28;20118;-80
2021/05/30 05:38:24;;;;;;;21.20;13.23;;;10.60;99.90;;;;;;4963268;28;20088;-80
2021/05/30 05:40:50;;;;;;;25.20;14.20;;;10.50;99.90;;;;;;4985871;28;20045;-80
2021/05/30 05:43:16;;;;;;;22.10;13.20;;;10.50;99.90;;;;;;4960083;28;20031;-81
2021/05/30 05:45:42;;;;;;;20.38;14.48;;;10.50;99.90;;;;;;4982557;28;20041;-81
2021/05/30 05:48:12;;;;;;;30.92;15.40;;;10.50;99.90;;;;;;4966810;28;20038;-80
2021/05/30 05:50:38;;;;;;;26.25;15.13;;;10.60;99.90;;;;;;4977583;28;20093;-81
2021/05/30 05:53:04;;;;;;;;;;;10.70;99.90;;;;;;4960004;28;20109;-80
2021/05/30 05:55:30;;;;;;;25.52;14.88;;;10.80;99.90;;;;;;4975737;28;19918;-81
2021/05/30 05:57:56;;;;;;;29.95;16.35;;;10.80;99.90;;;;;;4975719;28;20046;-81
2021/05/30 06:00:23;;;;;;;26.85;15.98;;;10.90;99.90;;;;;;4978386;28;20038;-80
2021/05/30 06:02:50;;;;;;;25.50;15.95;;;10.90;99.90;;;;;;4977440;28;20185;-81
2021/05/30 06:05:21;;;;;;;27.90;15.40;;;10.90;99.90;;;;;;4959043;28;20035;-81
2021/05/30 06:07:50;;;;;;;24.45;16.15;;;10.90;99.90;;;;;;4972812;28;20042;-83
2021/05/30 06:10:21;;;;;;;24.80;15.15;;;10.80;99.90;;;;;;4979528;28;20047;-81
2021/05/30 06:12:49;;;;;;;25.42;15.93;;;10.80;99.90;;;;;;4948294;28;20077;-81
2021/05/30 06:15:16;;;;;;;29.70;15.68;;;10.80;99.90;;;;;;4974180;28;20461;-81
2021/05/30 06:17:42;;;;;;;26.77;14.93;;;10.70;99.90;;;;;;4976704;28;20049;-81
2021/05/30 06:20:08;;;;;;;27.73;15.02;;;10.70;99.90;;;;;;4985326;28;20149;-81
2021/05/30 06:22:35;;;;;;;24.60;14.52;;;10.70;99.90;;;;;;4979738;28;20053;-81
2021/05/30 06:25:01;;;;;;;25.65;13.73;;;10.80;99.90;;;;;;4968698;28;20054;-82
2021/05/30 06:27:27;;;;;;;21.42;13.20;;;10.80;99.90;;;;;;4940587;28;20102;-81
2021/05/30 06:29:52;;;;;;;22.38;13.43;;;10.90;99.90;;;;;;4967716;28;20081;-81
2021/05/30 06:32:18;;;;;;;21.48;13.13;;;10.90;99.90;;;;;;4963026;28;20077;-81
2021/05/30 06:34:44;;;;;;;22.48;12.80;;;11.00;99.90;;;;;;4963388;28;20472;-81
2021/05/30 06:37:10;;;;;;;21.83;13.52;;;11.20;99.90;;;;;;4982852;28;20043;-81
2021/05/30 06:39:37;;;;;;;20.88;11.98;;;11.30;99.90;;;;;;4980919;28;20074;-80
2021/05/30 06:42:03;;;;;;;21.95;12.95;;;11.40;99.90;;;;;;4977133;28;20477;-82
2021/05/30 06:44:29;;;;;;;;;;;11.40;99.90;;;;;;4934597;28;20045;-81
2021/05/30 06:46:56;;;;;;;24.05;12.95;;;11.30;99.90;;;;;;4981654;28;19918;-81
2021/05/30 06:49:23;;;;;;;20.05;13.25;;;11.30;99.90;;;;;;4949184;28;20046;-81
2021/05/30 06:51:48;;;;;;;22.15;12.20;;;11.50;99.90;;;;;;4977037;28;20039;-82
2021/05/30 06:54:16;;;;;;;20.48;12.27;;;11.60;99.90;;;;;;4976344;28;20035;-82
2021/05/30 06:56:42;;;;;;;20.42;12.48;;;11.70;99.90;;;;;;4957259;28;20043;-80
2021/05/30 06:59:08;;;;;;;23.48;12.35;;;11.80;99.90;;;;;;4942250;28;20073;-80
2021/05/30 07:01:34;;;;;;;19.10;12.18;;;11.90;99.90;;;;;;4946433;28;20404;-80
2021/05/30 07:04:00;;;;;;;26.50;11.93;;;12.10;99.90;;;;;;4960927;28;20376;-80
2021/05/30 07:06:25;;;;;;;20.55;10.75;;;12.30;99.90;;;;;;4957824;28;20400;-81
2021/05/30 07:08:59;;;;;;;19.58;10.85;;;12.40;99.90;;;;;;4950835;28;20046;-82
2021/05/30 07:11:25;;;;;;;23.25;12.15;;;12.50;99.90;;;;;;4977176;28;20030;-82
2021/05/30 07:13:52;;;;;;;19.38;10.82;;;12.60;99.90;;;;;;4980714;28;20026;-82
2021/05/30 07:16:18;;;;;;;24.50;11.43;;;12.70;99.90;;;;;;4942440;28;20054;-81
2021/05/30 07:18:45;;;;;;;18.17;10.27;;;12.60;99.90;;;;;;4975918;28;20448;-81
2021/05/30 07:21:11;;;;;;;19.55;10.95;;;12.60;99.90;;;;;;4973402;28;20046;-82
2021/05/30 07:23:37;;;;;;;20.02;10.68;;;12.60;99.90;;;;;;4981722;28;20072;-82
2021/05/30 07:26:04;;;;;;;17.10;9.93;;;12.70;99.90;;;;;;4960389;28;20078;-81
2021/05/30 07:28:30;;;;;;;16.35;10.65;;;12.60;99.90;;;;;;4978538;28;20495;-80
2021/05/30 07:30:59;;;;;;;17.10;10.05;;;12.70;99.90;;;;;;4945727;28;20077;-82
2021/05/30 07:33:27;;;;;;;19.23;11.13;;;12.70;99.90;;;;;;4973931;28;20110;-82
2021/05/30 07:35:53;;;;;;;18.55;10.57;;;12.80;99.90;;;;;;4945560;28;20388;-80
2021/05/30 07:38:20;;;;;;;20.95;10.07;;;12.90;99.90;;;;;;4972773;28;20527;-82
2021/05/30 07:40:46;;;;;;;16.42;9.75;;;13.10;99.90;;;;;;4963506;28;20125;-81
2021/05/30 07:43:12;;;;;;;;;;;13.10;99.90;;;;;;4962573;28;20039;-81
2021/05/30 07:45:38;;;;;;;16.17;9.18;;;13.20;99.90;;;;;;4964688;28;19922;-83
2021/05/30 07:48:05;;;;;;;15.50;9.20;;;13.30;99.90;;;;;;4961641;28;20047;-81
2021/05/30 07:50:30;;;;;;;;;;;13.30;99.90;;;;;;4957506;28;20054;-81
2021/05/30 07:52:59;;;;;;;15.63;9.25;;;13.40;99.90;;;;;;4973767;28;19929;-80
2021/05/30 07:55:28;;;;;;;19.63;9.85;;;13.50;99.90;;;;;;4973317;28;20035;-81
2021/05/30 07:57:58;;;;;;;17.13;9.82;;;13.60;99.90;;;;;;4983655;28;20554;-82
2021/05/30 08:00:24;;;;;;;17.27;9.77;;;13.60;99.90;;;;;;4981518;28;20034;-81
2021/05/30 08:02:51;;;;;;;20.17;9.85;;;13.60;99.90;;;;;;4942614;28;20059;-82
2021/05/30 08:05:20;;;;;;;16.17;9.15;;;13.70;99.90;;;;;;4976741;28;20042;-81
2021/05/30 08:07:48;;;;;;;16.48;9.00;;;13.80;99.90;;;;;;4973401;28;20472;-80
2021/05/30 08:10:15;;;;;;;14.90;8.90;;;13.80;99.90;;;;;;4956377;28;20039;-80
2021/05/30 08:12:41;;;;;;;15.27;9.02;;;13.80;99.90;;;;;;4943261;28;20488;-82
2021/05/30 08:15:09;;;;;;;18.45;9.20;;;13.90;99.90;;;;;;4983725;28;20042;-80
2021/05/30 08:17:36;;;;;;;16.73;10.00;;;13.90;99.90;;;;;;4960911;28;20041;-81
2021/05/30 08:20:18;;;;;;;13.80;8.27;;;13.90;99.90;;;;;;4978315;28;20046;-81
2021/05/30 08:22:44;;;;;;;18.27;8.45;;;13.90;99.90;;;;;;4938700;28;20117;-81
2021/05/30 08:25:11;;;;;;;18.48;9.00;;;14.00;99.90;;;;;;4987298;28;20046;-80
2021/05/30 08:27:37;;;;;;;14.88;8.65;;;14.00;99.90;;;;;;4954599;28;20030;-79
2021/05/30 08:30:08;;;;;;;14.98;8.00;;;14.00;99.90;;;;;;4936005;28;20051;-80
2021/05/30 08:32:34;;;;;;;15.93;8.45;;;14.10;99.90;;;;;;4961484;28;20113;-84
2021/05/30 08:35:02;;;;;;;15.57;8.25;;;14.20;99.90;;;;;;4972564;28;20114;-81
2021/05/30 08:37:27;;;;;;;14.52;9.27;;;14.30;99.90;;;;;;4948102;28;20135;-81
2021/05/30 08:39:53;;;;;;;12.80;8.70;;;14.30;99.90;;;;;;4952357;28;20440;-82
2021/05/30 08:42:21;;;;;;;15.20;8.18;;;14.30;99.90;;;;;;4962678;28;20122;-77
2021/05/30 08:44:49;;;;;;;16.17;8.50;;;14.40;99.90;;;;;;4972548;28;20041;-77
2021/05/30 08:47:29;;;;;;;16.88;9.55;;;14.50;99.90;;;;;;4969013;28;20046;-80
2021/05/30 08:49:56;;;;;;;14.65;8.45;;;14.70;99.90;;;;;;4947021;28;20507;-83
2021/05/30 08:52:27;;;;;;;13.13;8.02;;;14.70;99.90;;;;;;4980709;28;20034;-84
2021/05/30 08:54:56;;;;;;;12.48;7.45;;;14.60;99.90;;;;;;4947317;28;20047;-80
2021/05/30 08:57:22;;;;;;;18.83;8.70;;;14.60;99.90;;;;;;4973363;28;20071;-76
2021/05/30 09:00:08;;;;;;;14.52;7.93;;;14.60;99.90;;;;;;4966514;28;20039;-81
2021/05/30 09:02:34;;;;;;;18.30;8.00;;;14.60;99.90;;;;;;4976725;28;20046;-79
2021/05/30 09:05:03;;;;;;;14.07;7.55;;;14.60;99.90;;;;;;4963094;28;20163;-79
2021/05/30 09:07:43;;;;;;;14.32;8.32;;;14.60;99.90;;;;;;4955306;28;20558;-80
2021/05/30 09:10:13;;;;;;;14.05;8.38;;;14.70;99.90;;;;;;4976120;28;20147;-82
2021/05/30 09:12:39;;;;;;;17.13;8.35;;;14.70;99.90;;;;;;4980139;28;20035;-81
2021/05/30 09:15:27;;;;;;;16.60;8.25;;;14.70;99.90;;;;;;4957846;28;20548;-80
2021/05/30 09:18:12;;;;;;;13.25;7.30;;;14.90;99.90;;;;;;4952814;29;20409;-81
2021/05/30 09:20:59;;;;;;;13.40;7.40;;;15.00;99.90;;;;;;4960269;28;20046;-80
2021/05/30 09:23:33;;;;;;;11.38;7.18;;;15.20;99.90;;;;;;4955298;28;20042;-82
2021/05/30 09:26:19;;;;;;;13.80;8.23;;;15.20;99.90;;;;;;4985708;28;20038;-84
2021/05/30 09:29:03;;;;;;;14.00;7.43;;;15.20;99.90;;;;;;4981564;28;20042;-83
2021/05/30 09:31:29;;;;;;;19.13;8.50;;;15.10;99.90;;;;;;4954811;28;20050;-84
2021/05/30 09:33:55;;;;;;;16.55;7.47;;;15.10;99.90;;;;;;4956287;28;20535;-82
2021/05/30 09:36:21;;;;;;;;;;;15.20;99.90;;;;;;4977422;28;20113;-78
2021/05/30 09:38:48;;;;;;;13.10;7.15;;;15.30;99.90;;;;;;4974991;28;20287;-83
2021/05/30 09:41:18;;;;;;;12.55;7.63;;;15.40;99.90;;;;;;4979264;28;20042;-81
2021/05/30 09:43:55;;;;;;;14.30;7.88;;;15.40;99.90;;;;;;4946955;28;20097;-83
2021/05/30 09:46:22;;;;;;;12.80;7.35;;;15.50;99.90;;;;;;4954385;28;20106;-81
2021/05/30 09:48:51;;;;;;;13.70;7.97;;;15.40;99.90;;;;;;4977668;28;20131;-81
2021/05/30 09:51:29;;;;;;;12.35;6.97;;;15.30;99.90;;;;;;4970460;28;20388;-83
2021/05/30 09:53:58;;;;;;;13.20;7.57;;;15.40;99.90;;;;;;4972083;28;20027;-80
2021/05/30 09:57:06;;;;;;;14.00;6.60;;;15.60;99.90;;;;;;4975784;28;20122;-82
2021/05/30 09:59:37;;;;;;;11.25;6.65;;;15.80;99.90;;;;;;4963666;28;20054;-82
2021/05/30 10:02:05;;;;;;;11.98;7.22;;;15.80;99.90;;;;;;4977218;28;20049;-84
2021/05/30 10:04:36;;;;;;;10.25;6.28;;;15.90;99.90;;;;;;4959796;28;20038;-80
2021/05/30 10:07:06;;;;;;;11.82;6.95;;;15.80;99.90;;;;;;4982783;28;20046;-80
2021/05/30 10:09:33;;;;;;;10.70;6.93;;;15.80;99.90;;;;;;4972976;28;20049;-80
2021/05/30 10:11:59;;;;;;;11.85;6.95;;;15.80;99.90;;;;;;4965075;28;20042;-77
2021/05/30 10:14:26;;;;;;;16.15;8.07;;;16.00;99.90;;;;;;4978223;28;20047;-81
2021/05/30 10:16:53;;;;;;;11.38;7.53;;;16.10;99.90;;;;;;4968035;28;20039;-79
2021/05/30 10:19:42;;;;;;;12.82;7.40;;;16.20;99.90;;;;;;4975350;28;20716;-79
2021/05/30 10:22:10;;;;;;;11.57;6.32;;;16.30;99.90;;;;;;4974525;28;20075;-77
2021/05/30 10:24:48;;;;;;;11.80;7.40;;;16.40;99.90;;;;;;5119010;27;1303890;-74
2021/05/30 10:27:19;;;;;;;12.00;7.43;;;16.40;99.90;;;;;;5147701;27;20043;-73
2021/05/30 10:30:06;;;;;;;13.15;7.28;;;16.30;99.90;;;;;;5147517;27;20117;-70
2021/05/30 10:32:33;;;;;;;11.93;7.05;;;16.40;99.90;;;;;;5145779;27;20122;-74
2021/05/30 10:35:12;;;;;;;12.00;6.82;;;16.40;99.90;;;;;;5150232;27;20046;-71
2021/05/30 10:37:46;;;;;;;13.73;7.85;;;16.60;99.90;;;;;;5149469;27;20111;-73
2021/05/30 10:40:23;;;;;;;14.75;7.13;;;16.70;99.90;;;;;;5148856;27;20049;-70
2021/05/30 10:43:07;;;;;;;14.65;7.57;;;16.70;99.90;;;;;;5145074;27;20073;-74
2021/05/30 10:45:57;;;;;;;13.73;8.10;;;16.70;99.90;;;;;;5148071;27;20067;-72
2021/05/30 10:48:23;;;;;;;13.13;7.32;;;16.80;99.90;;;;;;5133593;27;20438;-71
2021/05/30 10:51:07;;;;;;;13.25;7.95;;;16.90;99.90;;;;;;5148359;27;20027;-76
2021/05/30 10:53:34;;;;;;;15.40;8.52;;;17.00;99.90;;;;;;5143322;27;20038;-75
2021/05/30 10:56:30;;;;;;;14.02;7.85;;;17.00;99.90;;;;;;5144607;27;20430;-74
2021/05/30 10:59:11;;;;;;;14.80;7.60;;;17.00;99.90;;;;;;5149079;27;20076;-72
2021/05/30 11:01:40;;;;;;;10.63;7.20;;;16.90;99.90;;;;;;5147352;27;20030;-72
2021/05/30 11:04:30;;;;;;;12.10;8.02;;;16.90;99.90;;;;;;5150584;27;20035;-74
2021/05/30 11:07:05;;;;;;;13.25;8.27;;;16.90;99.90;;;;;;5150040;27;20080;-73
2021/05/30 11:09:53;;;;;;;16.42;8.25;;;16.90;99.90;;;;;;5137887;27;20035;-72
2021/05/30 11:12:21;;;;;;;14.93;8.80;;;17.10;99.90;;;;;;5126227;28;20031;-73
2021/05/30 11:15:09;;;;;;;14.45;8.00;;;17.20;99.90;;;;;;5127002;28;20397;-72
2021/05/30 11:17:54;;;;;;;12.60;7.50;;;17.30;99.90;;;;;;5123454;28;20111;-74
2021/05/30 11:20:28;;;;;;;14.85;8.63;;;17.30;99.90;;;;;;5127792;28;20036;-73
2021/05/30 11:22:59;;;;;;;15.65;8.75;;;17.40;99.90;;;;;;5124632;27;20063;-73
2021/05/30 11:25:31;;;;;;;13.90;8.18;;;17.40;99.90;;;;;;5105234;28;20380;-74
2021/05/30 11:28:01;;;;;;;13.07;9.02;;;17.50;99.90;;;;;;5108402;27;20035;-73
2021/05/30 11:30:40;;;;;;;13.52;8.68;;;17.60;99.90;;;;;;5104213;28;20735;-72
2021/05/30 11:33:28;;;;;;;15.57;8.93;;;17.50;99.90;;;;;;5106914;28;20093;-73
2021/05/30 11:35:57;;;;;;;15.85;8.77;;;17.50;99.90;;;;;;5094145;28;20550;-76
2021/05/30 11:38:51;;;;;;;16.38;8.52;;;17.50;99.90;;;;;;5093868;28;20036;-77
2021/05/30 11:41:27;;;;;;;11.60;8.07;;;17.50;99.90;;;;;;5093045;28;20036;-77
2021/05/30 11:44:05;;;;;;;12.65;8.38;;;17.40;99.90;;;;;;5095674;28;20032;-78
2021/05/30 11:46:52;;;;;;;12.70;8.38;;;17.40;99.90;;;;;;5094429;28;20040;-77
2021/05/30 11:49:32;;;;;;;14.07;7.57;;;17.50;99.90;;;;;;5086527;28;20032;-77
2021/05/30 11:52:04;;;;;;;15.35;8.82;;;17.70;99.90;;;;;;5077434;28;20574;-76
2021/05/30 11:54:42;;;;;;;13.57;8.27;;;17.80;99.90;;;;;;5089310;28;20036;-77
2021/05/30 11:57:09;;;;;;;10.57;7.80;;;17.90;99.90;;;;;;5094451;28;20032;-76
2021/05/30 11:59:44;;;;;;;14.43;8.45;;;18.00;99.90;;;;;;5090143;28;20039;-77
2021/05/30 12:02:30;;;;;;;12.13;7.88;;;18.10;99.90;;;;;;5091846;28;20450;-77
2021/05/30 12:05:00;;;;;;;14.73;7.85;;;18.30;99.90;;;;;;5090116;28;20068;-78
2021/05/30 12:07:26;;;;;;;11.48;7.78;;;18.50;99.90;;;;;;5088614;28;20038;-78
2021/05/30 12:09:55;;;;;;;12.10;8.00;;;18.60;99.90;;;;;;5083676;28;20051;-78
2021/05/30 12:12:21;;;;;;;15.82;8.30;;;18.50;99.40;;;;;;5077423;28;20537;-78
2021/05/30 12:14:47;;;;;;;11.00;7.38;;;18.40;98.80;;;;;;5081281;28;20044;-78
2021/05/30 12:17:13;;;;;;;;;;;18.30;98.70;;;;;;5090193;28;20093;-77
2021/05/30 12:19:43;;;;;;;12.13;8.05;;;18.30;99.60;;;;;;5086461;28;19923;-78
2021/05/30 12:22:09;;;;;;;10.50;7.80;;;18.30;99.10;;;;;;5090183;28;20035;-77
2021/05/30 12:24:35;;;;;;;;;;;18.20;98.70;;;;;;5074016;28;20056;-77
2021/05/30 12:27:02;;;;;;;11.55;7.65;;;18.30;99.30;;;;;;5090024;28;19970;-77
2021/05/30 12:29:31;;;;;;;11.70;7.50;;;18.20;99.10;;;;;;5090677;28;20044;-77
2021/05/30 12:31:57;;;;;;;13.55;8.20;;;18.40;99.10;;;;;;5092356;28;20541;-76
2021/05/30 12:34:36;;;;;;;13.85;8.75;;;18.50;98.70;;;;;;5092998;28;20058;-78
2021/05/30 12:37:02;;;;;;;13.63;8.02;;;18.50;98.40;;;;;;5091267;28;20115;-78
2021/05/30 12:39:28;;;;;;;;;;;18.50;98.40;;;;;;5097115;28;20100;-77
2021/05/30 12:41:57;;;;;;;14.03;7.87;;;18.50;98.60;;;;;;5091859;28;19927;-76
2021/05/30 12:44:31;;;;;;;14.88;8.93;;;18.60;99.20;;;;;;5091541;28;20290;-76
2021/05/30 12:46:59;;;;;;;12.60;9.00;;;18.50;99.50;;;;;;5093081;28;20040;-77
2021/05/30 12:49:26;;;;;;;15.05;7.82;;;18.70;99.50;;;;;;5080831;28;20043;-78